ADDS METAR Data INFO
IDs: Format: Raw Decoded Include TAF

Data at: 2156 UTC 18 Oct 2017

KMDD 182135Z AUTO 19010KT 10SM CLR 28/05 A3005 RMK AO2 T02800047
KMDD 182115Z AUTO 18012KT 10SM CLR 29/05 A3004 RMK AO2 T02930048
KMDD 182055Z AUTO 18009KT 10SM CLR 29/05 A3005 RMK AO2 T02850049
KMDD 182035Z AUTO 17008KT 10SM CLR 29/05 A3005 RMK AO2 T02850054
KMDD 182015Z AUTO 18009KT 10SM CLR 29/06 A3006 RMK AO2 T02850057
KMDD 181955Z AUTO 19010G14KT 10SM CLR 29/06 A3006 RMK AO2 T02940057
KMDD 181935Z AUTO 18008KT 10SM CLR 29/06 A3007 RMK AO2 T02880057
KMDD 181915Z AUTO 18010KT 10SM CLR 29/05 A3008 RMK AO2 T02860047
KMDD 181855Z AUTO 17011KT 10SM CLR 28/05 A3009 RMK AO2 T02800049
KMDD 181835Z AUTO 17009KT 10SM CLR 28/06 A3009 RMK AO2 T02750057
KMDD 181815Z AUTO 19008KT 10SM CLR 27/06 A3010 RMK AO2 T02650056
KMDD 181755Z AUTO 17008KT 10SM CLR 26/06 A3012 RMK AO2 T02560056 10257 20136
KMDD 181735Z AUTO 20009KT 10SM CLR 25/05 A3012 RMK AO2 T02490053
KMDD 181715Z AUTO 19009KT 10SM CLR 25/05 A3012 RMK AO2 T02470053
KMDD 181655Z AUTO 19008KT 10SM CLR 24/05 A3013 RMK AO2 T02390047
KMDD 181635Z AUTO 19009KT 10SM CLR 23/05 A3013 RMK AO2 T02300045
KMDD 181615Z AUTO 19009KT 10SM CLR 22/05 A3013 RMK AO2 T02200045
KMDD 181555Z AUTO 18009KT 10SM CLR 22/05 A3013 RMK AO2 T02160046
KMDD 181535Z AUTO 18008KT 10SM CLR 21/05 A3014 RMK AO2 T02060046
KMDD 181515Z AUTO 17010KT 10SM CLR 20/05 A3013 RMK AO2 T01960051
KMDD 181455Z AUTO 19008KT 10SM CLR 19/05 A3013 RMK AO2 T01870049
KMDD 181435Z AUTO 18008KT 10SM CLR 18/05 A3013 RMK AO2 T01760050
KMDD 181415Z AUTO 18008KT 10SM CLR 16/05 A3013 RMK AO2 T01640051
KMDD 181355Z AUTO 17009KT 10SM CLR 16/05 A3012 RMK AO2 T01560051
KMDD 181335Z AUTO 18008KT 10SM CLR 15/05 A3012 RMK AO2 T01500052
KMDD 181315Z AUTO 18009KT 10SM CLR 15/05 A3010 RMK AO2 T01470050
KMDD 181255Z AUTO 18007KT 10SM CLR 14/05 A3010 RMK AO2 T01420051
KMDD 181235Z AUTO 18008KT 10SM CLR 14/05 A3010 RMK AO2 T01420051
KMDD 181215Z AUTO 18006KT 10SM CLR 14/05 A3010 RMK AO2 T01360052
KMDD 181155Z AUTO 18005KT 10SM CLR 14/05 A3010 RMK AO2 T01360051 10175 20136
KMDD 181135Z AUTO 19007KT 10SM CLR 14/05 A3010 RMK AO2 T01430050
KMDD 181115Z AUTO 19008KT 10SM CLR 15/05 A3010 RMK AO2 T01470048
KMDD 181055Z AUTO 19008KT 10SM CLR 15/05 A3009 RMK AO2 T01500047
KMDD 181035Z AUTO 19008KT 10SM CLR 15/05 A3009 RMK AO2 T01500047
KMDD 181015Z AUTO 18008KT 10SM CLR 15/05 A3009 RMK AO2 T01470048
KMDD 180955Z AUTO 18007KT 10SM CLR 15/05 A3009 RMK AO2 T01490048
KMDD 180935Z AUTO 19009KT 10SM CLR 15/05 A3009 RMK AO2 T01500047
KMDD 180915Z AUTO 18008KT 10SM CLR 15/05 A3009 RMK AO2 T01510048
KMDD 180855Z AUTO 18009G15KT 10SM CLR 16/05 A3010 RMK AO2 T01550048
KMDD 180835Z AUTO 19010KT 7SM CLR 16/05 A3010 RMK AO2 T01570046
KMDD 180815Z AUTO 19010KT 10SM CLR 16/05 A3011 RMK AO2 T01610045
KMDD 180755Z AUTO 18012KT 10SM CLR 16/04 A3012 RMK AO2 T01630043
KMDD 180735Z AUTO 18011G16KT 10SM CLR 17/04 A3012 RMK AO2 T01660042
KMDD 180715Z AUTO 18011KT 10SM CLR 17/04 A3012 RMK AO2 T01710041
KMDD 180655Z AUTO 18013KT 10SM CLR 17/04 A3012 RMK AO2 T01720041
KMDD 180635Z AUTO 19011G16KT 10SM CLR 18/04 A3012 RMK AO2 T01750041
KMDD 180615Z AUTO 19012G15KT 10SM CLR 17/04 A3013 RMK AO2 T01740040
KMDD 180555Z AUTO 19011KT 10SM CLR 18/04 A3013 RMK AO2 T01750036 10243 20171 402690096
KMDD 180535Z AUTO 18009KT 10SM CLR 17/03 A3014 RMK AO2 T01720033
KMDD 180515Z AUTO 18007KT 10SM CLR 17/03 A3015 RMK AO2 T01720030
KMDD 180455Z AUTO 18007KT 10SM CLR 18/03 A3015 RMK AO2 T01750027
KMDD 180435Z AUTO 17008KT 10SM CLR 18/02 A3015 RMK AO2 T01800021
KMDD 180415Z AUTO 17007KT 10SM CLR 18/02 A3015 RMK AO2 T01840018
KMDD 180355Z AUTO 17007KT 10SM CLR 19/02 A3015 RMK AO2 T01870017
KMDD 180335Z AUTO 17009KT 10SM CLR 20/02 A3015 RMK AO2 T01950016
KMDD 180315Z AUTO 17010KT 10SM CLR 20/02 A3015 RMK AO2 T01970017
KMDD 180255Z AUTO 16010KT 10SM CLR 20/02 A3015 RMK AO2 T01950024
KMDD 180235Z AUTO 16007KT 7SM CLR 20/03 A3015 RMK AO2 T01950031
KMDD 180215Z AUTO 17007KT 10SM CLR 20/04 A3015 RMK AO2 T01990035
KMDD 180155Z AUTO 16006KT 7SM CLR 20/04 A3015 RMK AO2 T02020037
KMDD 180135Z AUTO 16006KT 10SM CLR 21/04 A3015 RMK AO2 T02050040
KMDD 180115Z AUTO 17006KT 7SM CLR 21/04 A3015 RMK AO2 T02100042
KMDD 180055Z AUTO 17007KT 10SM CLR 22/04 A3014 RMK AO2 T02170044
KMDD 180035Z AUTO 16006KT 10SM CLR 22/05 A3014 RMK AO2 T02200046
KMDD 180015Z AUTO 16006KT 10SM CLR 23/04 A3013 RMK AO2 T02320041
KMDD 172355Z AUTO 16008KT 10SM CLR 24/03 A3013 RMK AO2 T02440031 10269 20232
KMDD 172335Z AUTO 17006KT 10SM CLR 25/03 A3014 RMK AO2 T02500031
KMDD 172315Z AUTO 16009KT 7SM CLR 26/03 A3014 RMK AO2 T02560029
KMDD 172255Z AUTO 17009KT 10SM CLR 26/03 A3014 RMK AO2 T02610028
KMDD 172235Z AUTO 18008KT 10SM CLR 26/01 A3014 RMK AO2 T02640008
KMDD 172215Z AUTO 19008KT 7SM CLR 27/02 A3015 RMK AO2 T02670021
KMDD 172155Z AUTO 16009KT 10SM CLR 27/02 A3015 RMK AO2 T02660023
KMDD 172135Z AUTO 15007KT 10SM CLR 27/01 A3016 RMK AO2 T02660013
KMDD 172115Z AUTO 17008KT 150V210 10SM CLR 27/02 A3016 RMK AO2 T02660016
KMDD 172055Z AUTO 18007KT 7SM CLR 26/02 A3017 RMK AO2 T02620016
KMDD 172035Z AUTO 15006KT 10SM CLR 26/03 A3018 RMK AO2 T02610028
KMDD 172015Z AUTO 15007KT 10SM CLR 26/02 A3019 RMK AO2 T02610023
KMDD 171955Z AUTO 18006KT 10SM CLR 26/03 A3020 RMK AO2 T02570028
KMDD 171935Z AUTO 19007G14KT 10SM CLR 26/03 A3021 RMK AO2 T02550025
KMDD 171915Z AUTO 17008KT 10SM CLR 25/03 A3022 RMK AO2 T02500025
KMDD 171855Z AUTO 19008KT 10SM CLR 25/02 A3023 RMK AO2 T02490024
KMDD 171835Z AUTO 20006KT 10SM CLR 25/02 A3025 RMK AO2 T02450019
KMDD 171815Z AUTO 19010KT 10SM CLR 24/02 A3025 RMK AO2 T02390015
KMDD 171755Z AUTO 19007KT 10SM CLR 23/01 A3026 RMK AO2 T02320006 10233 20096
KMDD 171735Z AUTO 18007KT 10SM CLR 23/02 A3027 RMK AO2 T02300015
KMDD 171715Z AUTO 19009KT 10SM CLR 22/02 A3028 RMK AO2 T02230017
KMDD 171655Z AUTO 20011KT 10SM CLR 22/02 A3028 RMK AO2 T02180019
KMDD 171635Z AUTO 18009G16KT 10SM CLR 21/01 A3028 RMK AO2 T02100014
KMDD 171615Z AUTO 19008KT 10SM CLR 21/01 A3029 RMK AO2 T02060012
KMDD 171555Z AUTO 18009KT 10SM CLR 20/01 A3030 RMK AO2 T01970008
KMDD 171535Z AUTO 17006KT 10SM CLR 18/02 A3030 RMK AO2 T01830016
KMDD 171515Z AUTO 19007KT 10SM CLR 18/01 A3030 RMK AO2 T01750014
KMDD 171455Z AUTO 19006KT 10SM CLR 16/02 A3029 RMK AO2 T01610020
KMDD 171435Z AUTO 18006KT 10SM CLR 15/02 A3029 RMK AO2 T01480024
KMDD 171415Z AUTO 16004KT 10SM CLR 13/03 A3029 RMK AO2 T01340033
KMDD 171355Z AUTO 16004KT 10SM CLR 12/03 A3028 RMK AO2 T01200032
KMDD 171335Z AUTO 14003KT 10SM CLR 11/02 A3028 RMK AO2 T01140021
KMDD 171315Z AUTO 00000KT 10SM CLR 11/02 A3028 RMK AO2 T01050020
KMDD 171255Z AUTO 15004KT 10SM CLR 10/02 A3028 RMK AO2 T01010020
KMDD 171235Z AUTO 16003KT 10SM CLR 11/02 A3028 RMK AO2 T01060015
KMDD 171215Z AUTO 19004KT 10SM CLR 11/01 A3028 RMK AO2 T01090014
KMDD 171155Z AUTO 18004KT 10SM CLR 10/02 A3028 RMK AO2 T01020022 10120 20101
KMDD 171135Z AUTO 18005KT 10SM CLR 10/02 A3028 RMK AO2 T01030019
KMDD 171115Z AUTO 19004KT 10SM CLR 11/02 A3028 RMK AO2 T01050020
KMDD 171055Z AUTO 19005KT 10SM CLR 10/03 A3027 RMK AO2 T01010025
KMDD 171035Z AUTO 19004KT 10SM CLR 11/03 A3027 RMK AO2 T01050025
KMDD 171015Z AUTO 00000KT 10SM CLR 11/02 A3027 RMK AO2 T01110020